Time;durP1;ratioP1;P1;durP2;ratioP2;P2;SDS_P1;SDS_P2;PMS_P1;PMS_P2;Temp;Humidity;BMP_temperature;BMP_pressure;BME280_temperature;BME280_humidity;BME280_pressure;Samples;Min_cycle;Max_cycle;Signal;HPM_P1;HPM_P2
2023/05/27 03:01:49;;;;;;;20.83;19.03;;;11.70;99.90;;;;;;5301023;23;20469;-69
2023/05/27 03:04:16;;;;;;;19.80;18.37;;;11.60;99.90;;;;;;4987973;28;20633;-69
2023/05/27 03:06:42;;;;;;;18.20;14.03;;;11.60;99.90;;;;;;4979897;28;20239;-69
2023/05/27 03:09:08;;;;;;;16.37;14.73;;;11.60;99.90;;;;;;4991058;28;20196;-69
2023/05/27 03:11:34;;;;;;;16.70;13.10;;;11.60;99.90;;;;;;4963349;28;20209;-69
2023/05/27 03:14:00;;;;;;;14.43;13.03;;;11.40;99.90;;;;;;4971457;28;20792;-69
2023/05/27 03:16:26;;;;;;;12.93;11.47;;;11.40;99.90;;;;;;4966326;28;20220;-69
2023/05/27 03:18:51;;;;;;;12.80;11.07;;;11.40;99.90;;;;;;4970046;28;20267;-69
2023/05/27 03:21:17;;;;;;;15.90;14.37;;;11.40;99.90;;;;;;4950437;28;20210;-69
2023/05/27 03:23:43;;;;;;;10.90;9.83;;;11.40;99.90;;;;;;4968607;28;20217;-69
2023/05/27 03:26:09;;;;;;;16.87;11.13;;;11.40;99.90;;;;;;4969288;28;20708;-69
2023/05/27 03:28:35;;;;;;;18.00;12.23;;;11.30;99.90;;;;;;4958421;28;20193;-69
2023/05/27 03:31:01;;;;;;;13.87;11.27;;;11.30;99.90;;;;;;4968394;28;20205;-70
2023/05/27 03:33:27;;;;;;;13.27;12.13;;;11.20;99.90;;;;;;4972016;28;20189;-67
2023/05/27 03:35:52;;;;;;;18.40;13.10;;;11.20;99.90;;;;;;4963912;28;20196;-68
2023/05/27 03:38:18;;;;;;;12.93;11.47;;;11.20;99.90;;;;;;4968089;28;20228;-68
2023/05/27 03:40:44;;;;;;;15.93;12.07;;;11.20;99.90;;;;;;4960007;28;20258;-68
2023/05/27 03:43:10;;;;;;;14.33;13.07;;;11.20;99.90;;;;;;4971655;28;20279;-68
2023/05/27 03:45:35;;;;;;;20.83;19.03;;;11.20;99.90;;;;;;4972220;28;20193;-68
2023/05/27 03:48:02;;;;;;;27.40;25.50;;;11.20;99.90;;;;;;4971908;28;20204;-68
2023/05/27 03:50:27;;;;;;;25.07;23.20;;;11.20;99.90;;;;;;4971906;28;20207;-68
2023/05/27 03:52:53;;;;;;;25.50;23.30;;;11.10;99.90;;;;;;4972380;28;20652;-68
2023/05/27 03:55:20;;;;;;;27.03;25.23;;;11.20;99.90;;;;;;4970632;28;20669;-68
2023/05/27 03:57:46;;;;;;;21.43;19.53;;;11.20;99.90;;;;;;4940800;29;20241;-68
2023/05/27 04:00:13;;;;;;;23.83;22.00;;;11.10;99.90;;;;;;4971471;28;20223;-68
2023/05/27 04:02:39;;;;;;;22.77;20.37;;;11.30;99.90;;;;;;4954739;28;20188;-68
2023/05/27 04:05:05;;;;;;;21.87;20.10;;;11.30;99.90;;;;;;4971755;28;20193;-68
2023/05/27 04:07:31;;;;;;;21.10;19.10;;;11.40;99.90;;;;;;4971846;28;20220;-68
2023/05/27 04:09:57;;;;;;;19.47;17.67;;;11.40;99.90;;;;;;4964916;28;20206;-70
2023/05/27 04:12:23;;;;;;;19.20;17.07;;;11.40;99.90;;;;;;4971607;28;20216;-70
2023/05/27 04:14:50;;;;;;;16.47;14.87;;;11.50;99.90;;;;;;4963508;28;20199;-70
2023/05/27 04:17:17;;;;;;;10.90;9.73;;;11.50;99.90;;;;;;4971359;28;20193;-70
2023/05/27 04:19:43;;;;;;;11.10;8.77;;;11.50;99.90;;;;;;4971218;28;20295;-70
2023/05/27 04:22:09;;;;;;;12.23;10.83;;;11.60;99.90;;;;;;4971604;28;20901;-71
2023/05/27 04:24:34;;;;;;;12.77;11.53;;;11.60;99.90;;;;;;4969411;28;20193;-70
2023/05/27 04:27:02;;;;;;;24.77;22.50;;;11.60;99.90;;;;;;4969072;28;20246;-70
2023/05/27 04:29:28;;;;;;;42.60;39.50;;;11.80;99.90;;;;;;4971498;28;20185;-70
2023/05/27 04:31:56;;;;;;;58.80;55.00;;;11.80;99.90;;;;;;4971306;28;20565;-70
2023/05/27 04:34:22;;;;;;;113.23;106.40;;;11.90;99.90;;;;;;4971235;28;20192;-71
2023/05/27 04:36:49;;;;;;;119.87;112.87;;;12.00;99.90;;;;;;4953813;28;20251;-71
2023/05/27 04:39:16;;;;;;;106.13;100.13;;;12.00;99.90;;;;;;4948792;28;20213;-72
2023/05/27 04:41:43;;;;;;;64.07;59.07;;;12.00;99.90;;;;;;4966758;28;20205;-72
2023/05/27 04:44:09;;;;;;;44.23;40.93;;;12.10;99.90;;;;;;4970140;28;20185;-72
2023/05/27 04:46:34;;;;;;;50.40;46.90;;;12.20;99.90;;;;;;4953815;28;20199;-72
2023/05/27 04:49:01;;;;;;;92.33;87.43;;;12.40;99.90;;;;;;4969439;28;20192;-72
2023/05/27 04:51:27;;;;;;;98.97;93.07;;;12.50;99.90;;;;;;4963555;28;20213;-72
2023/05/27 04:53:54;;;;;;;47.93;44.73;;;12.60;99.90;;;;;;4956150;28;20648;-72
2023/05/27 04:56:19;;;;;;;36.13;33.40;;;12.70;99.90;;;;;;4970347;28;20192;-72
2023/05/27 04:58:48;;;;;;;45.77;42.37;;;12.90;99.90;;;;;;4974461;28;20303;-73
2023/05/27 05:01:17;;;;;;;20.23;14.40;;;13.10;99.90;;;;;;4956712;28;20704;-71
2023/05/27 05:04:02;;;;;;;27.90;11.43;;;13.30;99.90;;;;;;4974904;28;20332;-72
2023/05/27 05:06:28;;;;;;;27.00;24.17;;;13.50;99.90;;;;;;4974828;28;20189;-71
2023/05/27 05:08:53;;;;;;;28.27;12.17;;;13.90;99.90;;;;;;4951435;28;20533;-72
2023/05/27 05:11:19;;;;;;;18.43;7.93;;;14.30;99.90;;;;;;4953078;28;20216;-71
2023/05/27 05:13:45;;;;;;;12.80;7.93;;;14.80;99.90;;;;;;4974662;28;20193;-72
2023/05/27 05:16:11;;;;;;;18.63;7.17;;;15.20;99.90;;;;;;4957626;28;20200;-72
2023/05/27 05:18:37;;;;;;;12.50;8.67;;;15.60;99.90;;;;;;4957454;28;20216;-72
2023/05/27 05:21:03;;;;;;;10.10;6.70;;;16.20;99.90;;;;;;4966408;28;20235;-72
2023/05/27 05:23:29;;;;;;;16.77;15.02;;;16.50;99.90;;;;;;4968548;28;20188;-72
2023/05/27 05:25:58;;;;;;;14.93;10.38;;;16.90;99.90;;;;;;4974797;28;20192;-72
2023/05/27 05:28:24;;;;;;;10.05;7.95;;;17.30;99.90;;;;;;4957091;28;20192;-71
2023/05/27 05:30:50;;;;;;;14.35;8.85;;;17.70;99.90;;;;;;4966904;28;20217;-72
2023/05/27 05:33:16;;;;;;;10.75;7.75;;;18.10;99.90;;;;;;4961832;28;20190;-72
2023/05/27 05:35:42;;;;;;;27.80;25.58;;;18.40;99.90;;;;;;4960922;28;20196;-72
2023/05/27 05:38:08;;;;;;;24.15;22.15;;;18.60;99.90;;;;;;4966789;28;20718;-73
2023/05/27 05:40:33;;;;;;;21.13;16.63;;;18.80;99.90;;;;;;4949111;28;20212;-73
2023/05/27 05:42:59;;;;;;;16.15;10.65;;;19.10;99.90;;;;;;4956908;28;20189;-73
2023/05/27 05:45:25;;;;;;;14.27;12.00;;;19.40;99.90;;;;;;4974411;28;20192;-72
2023/05/27 05:47:51;;;;;;;13.93;12.27;;;19.60;99.90;;;;;;4973798;28;20217;-72
2023/05/27 05:50:16;;;;;;;13.95;12.55;;;19.60;99.90;;;;;;4953265;29;20542;-72
2023/05/27 05:52:42;;;;;;;13.07;11.57;;;19.50;99.90;;;;;;4946906;28;20192;-73
2023/05/27 05:55:08;;;;;;;16.15;11.05;;;19.60;99.90;;;;;;4974029;28;20212;-73
2023/05/27 05:57:34;;;;;;;16.77;13.43;;;19.70;99.90;;;;;;4973685;28;20219;-73
2023/05/27 06:00:00;;;;;;;13.00;7.72;;;20.00;99.90;;;;;;4974145;28;20181;-73
2023/05/27 06:02:26;;;;;;;9.93;6.88;;;20.30;99.90;;;;;;4956566;28;20609;-73
2023/05/27 06:04:52;;;;;;;9.13;6.00;;;20.50;99.90;;;;;;4964340;28;20189;-73
2023/05/27 06:07:18;;;;;;;9.50;6.63;;;20.50;99.00;;;;;;4966357;28;20208;-74
2023/05/27 06:09:44;;;;;;;12.05;7.72;;;20.70;98.60;;;;;;4974430;28;20227;-74
2023/05/27 06:12:10;;;;;;;8.98;5.95;;;20.70;97.20;;;;;;4973980;28;20306;-74
2023/05/27 06:14:36;;;;;;;10.90;5.88;;;20.10;98.00;;;;;;4956544;28;20228;-74
2023/05/27 06:17:02;;;;;;;11.05;5.47;;;20.00;97.90;;;;;;4973457;28;20561;-73
2023/05/27 06:19:27;;;;;;;18.00;9.30;;;19.70;97.90;;;;;;4955824;28;20228;-74
2023/05/27 06:21:53;;;;;;;13.50;7.82;;;19.40;98.80;;;;;;4960502;28;20200;-73
2023/05/27 06:24:19;;;;;;;16.33;15.15;;;19.30;97.80;;;;;;4974216;28;20205;-74
2023/05/27 06:26:45;;;;;;;16.05;14.55;;;19.30;98.90;;;;;;4973933;28;20594;-74
2023/05/27 06:29:11;;;;;;;17.70;12.73;;;19.40;98.60;;;;;;4965557;28;20193;-74
2023/05/27 06:31:37;;;;;;;13.20;7.90;;;19.70;98.40;;;;;;4970379;28;20207;-74
2023/05/27 06:34:03;;;;;;;12.98;5.93;;;20.20;97.60;;;;;;4969310;28;20192;-74
2023/05/27 06:36:28;;;;;;;9.75;6.38;;;20.60;96.30;;;;;;4973682;28;20621;-74
2023/05/27 06:38:55;;;;;;;16.77;7.43;;;20.70;95.40;;;;;;4972846;28;20213;-74
2023/05/27 06:41:21;;;;;;;11.95;8.27;;;20.70;95.40;;;;;;4973441;28;20205;-74
2023/05/27 06:43:47;;;;;;;10.80;8.40;;;20.80;95.10;;;;;;4973521;28;20299;-74
2023/05/27 06:46:13;;;;;;;15.05;7.80;;;20.70;95.00;;;;;;4969195;28;20235;-74
2023/05/27 06:48:38;;;;;;;17.77;15.93;;;20.60;95.50;;;;;;4955418;28;20199;-73
2023/05/27 06:51:06;;;;;;;19.15;17.23;;;21.00;94.10;;;;;;4973173;28;20209;-73
2023/05/27 06:53:31;;;;;;;20.33;18.60;;;21.20;94.10;;;;;;4969964;28;20197;-73
2023/05/27 06:55:57;;;;;;;22.90;20.90;;;21.20;92.80;;;;;;4970288;28;20215;-73
2023/05/27 06:58:23;;;;;;;18.60;17.08;;;20.90;93.50;;;;;;4970019;28;20221;-73
2023/05/27 07:00:49;;;;;;;23.35;21.85;;;20.90;93.70;;;;;;4951109;28;20235;-73
2023/05/27 07:03:15;;;;;;;19.05;17.63;;;20.90;93.90;;;;;;4973557;28;20611;-73
2023/05/27 07:05:40;;;;;;;23.15;21.38;;;21.20;93.10;;;;;;4973413;28;20195;-73
2023/05/27 07:08:06;;;;;;;18.15;16.67;;;21.00;93.20;;;;;;4972953;28;20680;-74
2023/05/27 07:10:32;;;;;;;17.30;15.80;;;20.90;93.00;;;;;;4973219;28;20260;-74
2023/05/27 07:12:58;;;;;;;18.25;16.90;;;20.80;93.30;;;;;;4949689;28;20236;-73
2023/05/27 07:15:25;;;;;;;16.33;14.60;;;20.90;93.30;;;;;;4959821;28;20285;-73
2023/05/27 07:17:51;;;;;;;16.83;15.52;;;20.70;93.10;;;;;;4955638;28;20220;-73
2023/05/27 07:20:17;;;;;;;18.50;17.10;;;20.90;93.20;;;;;;4955841;28;20185;-73
2023/05/27 07:22:42;;;;;;;15.00;13.57;;;20.90;93.10;;;;;;4965084;28;20185;-73
2023/05/27 07:25:09;;;;;;;20.65;18.85;;;21.10;93.70;;;;;;4972914;28;20605;-74
2023/05/27 07:27:34;;;;;;;18.38;16.58;;;21.40;92.80;;;;;;4965306;28;20208;-73
2023/05/27 07:30:00;;;;;;;16.42;15.10;;;21.60;92.30;;;;;;4973010;28;20196;-74
2023/05/27 07:32:27;;;;;;;13.48;12.07;;;21.60;92.00;;;;;;4972894;28;20208;-73
2023/05/27 07:34:52;;;;;;;13.93;11.98;;;21.70;91.60;;;;;;4972768;28;20188;-73
2023/05/27 07:37:18;;;;;;;10.02;7.00;;;22.20;91.70;;;;;;4972479;28;20204;-73
2023/05/27 07:39:44;;;;;;;9.77;6.13;;;22.20;91.00;;;;;;4972752;28;20689;-73
2023/05/27 07:42:10;;;;;;;11.65;6.70;;;21.70;91.10;;;;;;4957061;28;20212;-74
2023/05/27 07:44:35;;;;;;;14.77;8.32;;;21.50;91.40;;;;;;4949401;28;20283;-73
2023/05/27 07:47:01;;;;;;;11.20;10.07;;;21.50;91.60;;;;;;4972383;28;20802;-74
2023/05/27 07:49:27;;;;;;;9.05;5.25;;;21.90;91.70;;;;;;4955490;28;20201;-74
2023/05/27 07:51:53;;;;;;;9.85;6.45;;;22.30;90.60;;;;;;4955246;28;20212;-75
2023/05/27 07:54:18;;;;;;;13.15;7.10;;;22.40;90.60;;;;;;4972635;28;20551;-74
2023/05/27 07:56:44;;;;;;;10.13;7.43;;;22.40;90.20;;;;;;4963852;28;20236;-74
2023/05/27 07:59:10;;;;;;;11.30;6.43;;;22.30;90.20;;;;;;4972059;28;20227;-74
2023/05/27 08:01:36;;;;;;;9.57;6.53;;;22.30;90.40;;;;;;4962035;28;20217;-74
2023/05/27 08:04:01;;;;;;;9.73;7.68;;;22.30;91.00;;;;;;4947753;28;20269;-74
2023/05/27 08:06:27;;;;;;;12.27;10.43;;;22.80;90.30;;;;;;4967695;28;20653;-74
2023/05/27 08:08:53;;;;;;;17.63;16.15;;;22.90;89.60;;;;;;4963521;28;20185;-71
2023/05/27 08:11:19;;;;;;;18.83;17.42;;;23.30;88.10;;;;;;4972087;28;20228;-74
2023/05/27 08:13:45;;;;;;;20.15;18.63;;;23.40;87.50;;;;;;4955234;28;20188;-73
2023/05/27 08:16:11;;;;;;;20.33;18.30;;;23.70;87.20;;;;;;4971862;28;20204;-73
2023/05/27 08:18:37;;;;;;;16.77;15.23;;;23.50;85.40;;;;;;4960681;28;20264;-73
2023/05/27 08:21:03;;;;;;;16.70;15.27;;;23.60;85.30;;;;;;4970176;28;20208;-72
2023/05/27 08:23:28;;;;;;;16.02;13.73;;;23.70;86.20;;;;;;4971599;28;20185;-73
2023/05/27 08:25:55;;;;;;;22.25;20.50;;;24.30;85.20;;;;;;4954962;28;20244;-73
2023/05/27 08:28:20;;;;;;;21.83;19.70;;;23.90;84.00;;;;;;4971743;28;20188;-75
2023/05/27 08:30:47;;;;;;;23.67;21.55;;;23.90;83.80;;;;;;4954951;28;20220;-78
2023/05/27 08:33:13;;;;;;;20.25;18.65;;;24.10;84.20;;;;;;4947172;28;20189;-76
2023/05/27 08:35:38;;;;;;;19.90;18.27;;;24.30;83.20;;;;;;4945719;28;20231;-75
2023/05/27 08:38:04;;;;;;;22.23;20.42;;;24.00;82.30;;;;;;4952335;28;20213;-75
2023/05/27 08:40:30;;;;;;;21.38;19.42;;;23.20;83.60;;;;;;4966303;28;20284;-76
2023/05/27 08:42:56;;;;;;;20.58;18.52;;;23.20;85.20;;;;;;4952403;28;20637;-68
2023/05/27 08:45:22;;;;;;;21.48;17.45;;;23.60;85.60;;;;;;4971628;28;20192;-68
2023/05/27 08:47:49;;;;;;;25.25;23.15;;;24.40;84.10;;;;;;4966062;28;20185;-69
2023/05/27 08:50:14;;;;;;;23.95;21.35;;;24.80;81.10;;;;;;4950153;28;20185;-68
2023/05/27 08:53:02;;;;;;;16.38;14.65;;;25.10;80.50;;;;;;4947681;29;20613;-68
2023/05/27 08:55:30;;;;;;;15.75;14.23;;;25.10;80.10;;;;;;4965116;28;20196;-69
2023/05/27 08:57:58;;;;;;;17.63;15.35;;;25.00;79.40;;;;;;4971186;28;20200;-68
2023/05/27 09:00:25;;;;;;;18.52;16.52;;;25.00;79.00;;;;;;4951411;28;20243;-68
2023/05/27 09:02:52;;;;;;;18.45;16.90;;;24.90;78.90;;;;;;4968302;28;20208;-68
2023/05/27 09:05:18;;;;;;;16.42;14.82;;;25.00;80.70;;;;;;4954268;28;20193;-68
2023/05/27 09:07:44;;;;;;;10.27;9.20;;;25.50;79.00;;;;;;4971271;28;20216;-68
2023/05/27 09:10:10;;;;;;;9.73;7.95;;;25.70;77.10;;;;;;4970993;28;20196;-68
2023/05/27 09:12:37;;;;;;;8.23;6.25;;;26.00;76.00;;;;;;4968006;28;20236;-67
2023/05/27 09:15:03;;;;;;;17.98;16.50;;;25.50;75.10;;;;;;4938454;28;20186;-68
2023/05/27 09:17:30;;;;;;;14.98;13.57;;;24.70;77.70;;;;;;4959014;28;20196;-67
2023/05/27 09:19:55;;;;;;;12.20;11.20;;;25.10;77.50;;;;;;4951238;28;20311;-68
2023/05/27 09:22:24;;;;;;;14.82;12.43;;;25.50;77.00;;;;;;4945424;28;20286;-68
2023/05/27 09:24:53;;;;;;;15.48;14.27;;;25.40;76.30;;;;;;4947262;28;20243;-68
2023/05/27 09:27:23;;;;;;;15.90;14.52;;;25.20;76.90;;;;;;4961043;28;20685;-68
2023/05/27 09:29:49;;;;;;;16.23;14.77;;;25.10;77.40;;;;;;4955157;28;20193;-68
2023/05/27 09:32:27;;;;;;;17.23;15.95;;;25.40;76.90;;;;;;4948751;28;20654;-68
2023/05/27 09:34:57;;;;;;;13.68;12.57;;;25.60;77.70;;;;;;4965418;28;20204;-68
2023/05/27 09:37:31;;;;;;;12.50;8.90;;;25.60;76.30;;;;;;4947024;29;20580;-68
2023/05/27 09:39:58;;;;;;;10.98;7.63;;;26.10;75.90;;;;;;4952340;28;20220;-68
2023/05/27 09:42:24;;;;;;;10.50;7.95;;;26.50;74.20;;;;;;4967011;28;20206;-68
2023/05/27 09:44:50;;;;;;;13.20;8.15;;;26.10;74.30;;;;;;4950876;28;20189;-68
2023/05/27 09:47:18;;;;;;;11.10;7.20;;;25.90;76.20;;;;;;4968881;28;20212;-67
2023/05/27 09:49:48;;;;;;;8.82;6.45;;;25.70;74.70;;;;;;4951374;28;20282;-67
2023/05/27 09:52:17;;;;;;;8.55;7.40;;;25.90;75.10;;;;;;4972087;28;20216;-67
2023/05/27 09:54:43;;;;;;;10.57;9.57;;;25.50;74.20;;;;;;4967104;28;20306;-67
2023/05/27 09:57:11;;;;;;;11.73;7.63;;;25.40;75.00;;;;;;4971195;28;20563;-67
2023/05/27 09:59:38;;;;;;;9.45;6.82;;;25.50;74.70;;;;;;4974343;28;20722;-67
2023/05/27 10:02:06;;;;;;;8.93;6.85;;;26.00;73.70;;;;;;4974162;28;20221;-72
2023/05/27 10:04:33;;;;;;;8.23;7.45;;;26.20;71.70;;;;;;4957345;28;20212;-67
2023/05/27 10:07:01;;;;;;;12.52;8.00;;;26.00;71.80;;;;;;4944862;28;20220;-67
2023/05/27 10:09:27;;;;;;;9.85;7.65;;;26.10;71.60;;;;;;4974021;28;20219;-67
2023/05/27 10:11:54;;;;;;;8.32;6.57;;;26.50;70.30;;;;;;4970653;28;20615;-68
2023/05/27 10:14:20;;;;;;;9.25;6.30;;;27.20;70.60;;;;;;4950070;28;20188;-68
2023/05/27 10:16:55;;;;;;;6.20;5.40;;;27.20;68.10;;;;;;4974018;28;20683;-67
2023/05/27 10:19:21;;;;;;;9.77;6.47;;;26.50;68.10;;;;;;4973898;28;20634;-67
2023/05/27 10:21:47;;;;;;;7.03;6.03;;;26.50;68.10;;;;;;4974135;28;20201;-67
2023/05/27 10:24:13;;;;;;;6.53;5.78;;;26.80;66.80;;;;;;4967884;28;20657;-67
2023/05/27 10:26:40;;;;;;;7.55;5.88;;;26.60;66.30;;;;;;4969254;28;20192;-67
2023/05/27 10:29:07;;;;;;;5.50;5.10;;;26.10;67.70;;;;;;4956095;28;20197;-67
2023/05/27 10:31:33;;;;;;;9.15;5.75;;;26.20;67.20;;;;;;4973486;28;20648;-67
2023/05/27 10:33:59;;;;;;;7.30;5.95;;;25.90;67.90;;;;;;4974590;28;20235;-74
2023/05/27 10:36:28;;;;;;;9.90;6.18;;;26.20;66.70;;;;;;4964049;28;20275;-73
2023/05/27 10:39:15;;;;;;;6.78;6.05;;;26.10;65.10;;;;;;4961434;28;20327;-73
2023/05/27 10:41:51;;;;;;;9.13;6.10;;;26.60;64.90;;;;;;4953950;28;20208;-73
2023/05/27 10:44:30;;;;;;;8.93;7.50;;;27.10;64.00;;;;;;4959154;28;20188;-74
2023/05/27 10:47:04;;;;;;;12.90;10.00;;;27.40;64.00;;;;;;4962462;28;20189;-74
2023/05/27 10:49:38;;;;;;;12.15;7.15;;;27.70;64.10;;;;;;4973244;28;20306;-74
2023/05/27 10:52:13;;;;;;;11.00;7.95;;;28.20;61.80;;;;;;4947872;28;20295;-73
2023/05/27 10:54:45;;;;;;;9.63;7.90;;;27.40;61.50;;;;;;4967483;28;20188;-74
2023/05/27 10:57:11;;;;;;;8.60;7.90;;;27.20;62.30;;;;;;4961152;28;20200;-73
2023/05/27 10:59:49;;;;;;;10.13;9.15;;;27.60;62.00;;;;;;4943323;29;20297;-73
2023/05/27 11:02:15;;;;;;;10.27;7.30;;;27.60;60.70;;;;;;4936295;28;20378;-74
2023/05/27 11:04:42;;;;;;;11.30;8.48;;;27.20;60.60;;;;;;4954534;28;20192;-74
2023/05/27 11:07:08;;;;;;;9.88;8.70;;;27.40;61.70;;;;;;4951152;28;20642;-74
2023/05/27 11:09:46;;;;;;;9.48;8.65;;;27.90;59.50;;;;;;4948527;28;20221;-75
2023/05/27 11:12:19;;;;;;;10.52;9.43;;;27.80;59.80;;;;;;4964577;28;20212;-74
2023/05/27 11:14:51;;;;;;;12.32;8.70;;;27.90;59.70;;;;;;4963446;28;20738;-74
2023/05/27 11:17:18;;;;;;;10.77;8.27;;;27.50;60.50;;;;;;4937576;28;20193;-75
2023/05/27 11:19:46;;;;;;;11.00;7.90;;;27.20;59.70;;;;;;4942918;28;20367;-74
2023/05/27 11:22:14;;;;;;;9.15;8.23;;;27.60;60.00;;;;;;4959253;28;20850;-74
2023/05/27 11:24:40;;;;;;;9.68;8.68;;;28.00;59.70;;;;;;4964341;28;20185;-74
2023/05/27 11:27:14;;;;;;;10.38;8.60;;;28.30;58.40;;;;;;4972435;28;20200;-74
2023/05/27 11:29:48;;;;;;;8.93;8.05;;;27.50;58.40;;;;;;4956004;28;20566;-74
2023/05/27 11:32:16;;;;;;;10.55;9.23;;;27.30;60.20;;;;;;4955400;28;20220;-74
2023/05/27 11:34:44;;;;;;;10.73;9.75;;;28.00;58.50;;;;;;4965468;28;20186;-74
2023/05/27 11:37:11;;;;;;;12.32;11.32;;;28.80;57.10;;;;;;4946643;28;20684;-73
2023/05/27 11:39:36;;;;;;;14.45;13.20;;;29.20;56.20;;;;;;4955476;28;20275;-75
2023/05/27 11:42:08;;;;;;;11.13;10.18;;;28.80;56.40;;;;;;4972899;28;20631;-74
2023/05/27 11:44:34;;;;;;;11.65;8.40;;;28.40;56.80;;;;;;4972778;28;20220;-74
2023/05/27 11:47:00;;;;;;;11.30;9.30;;;28.10;57.20;;;;;;4955121;28;20700;-74
2023/05/27 11:49:28;;;;;;;16.02;14.02;;;28.80;57.30;;;;;;4949823;29;20189;-75
2023/05/27 11:51:57;;;;;;;20.05;18.67;;;29.20;56.30;;;;;;4969672;28;20200;-75
2023/05/27 11:54:28;;;;;;;23.92;22.00;;;29.60;55.80;;;;;;4955428;28;20211;-74
2023/05/27 11:56:55;;;;;;;18.70;17.27;;;29.50;56.00;;;;;;4949456;28;20223;-73
2023/05/27 11:59:23;;;;;;;13.00;11.70;;;28.90;55.50;;;;;;4962793;28;20771;-74
2023/05/27 12:01:51;;;;;;;9.02;8.00;;;28.10;57.20;;;;;;4969317;28;20228;-74
2023/05/27 12:04:17;;;;;;;11.52;10.18;;;28.10;58.20;;;;;;4973248;28;20216;-73
2023/05/27 12:06:45;;;;;;;15.18;13.95;;;28.80;56.60;;;;;;4949216;28;20272;-73
2023/05/27 12:09:11;;;;;;;27.40;25.60;;;29.70;55.70;;;;;;4954059;28;20185;-74
2023/05/27 12:11:37;;;;;;;52.65;49.70;;;30.60;53.60;;;;;;4965949;28;20760;-74
2023/05/27 12:14:04;;;;;;;62.40;58.92;;;31.10;52.70;;;;;;4964601;28;20194;-73
2023/05/27 12:16:30;;;;;;;57.38;53.72;;;30.80;52.50;;;;;;4949146;28;20271;-73
2023/05/27 12:18:58;;;;;;;60.40;56.92;;;30.20;52.20;;;;;;4971157;28;20216;-74
2023/05/27 12:21:24;;;;;;;58.05;54.63;;;30.10;52.80;;;;;;4949831;28;20209;-74
2023/05/27 12:23:50;;;;;;;53.55;50.47;;;30.80;51.00;;;;;;4971609;28;20181;-73
2023/05/27 12:26:17;;;;;;;56.95;53.83;;;30.30;51.60;;;;;;4961874;28;20185;-74
2023/05/27 12:28:43;;;;;;;54.08;50.30;;;30.70;51.30;;;;;;4947671;28;20355;-74
2023/05/27 12:31:09;;;;;;;34.92;32.67;;;30.90;50.30;;;;;;4968032;28;20220;-75
2023/05/27 12:33:35;;;;;;;51.83;48.22;;;30.20;47.00;;;;;;4954510;28;20192;-74
2023/05/27 12:36:02;;;;;;;58.25;54.90;;;30.20;48.40;;;;;;4951386;28;20272;-75
2023/05/27 12:38:28;;;;;;;55.60;51.67;;;30.20;49.20;;;;;;4971084;28;20592;-75
2023/05/27 12:40:57;;;;;;;39.78;37.55;;;30.90;48.20;;;;;;4951829;28;20208;-72
2023/05/27 12:43:24;;;;;;;39.13;36.65;;;31.90;47.20;;;;;;4960341;28;20568;-73
2023/05/27 12:45:50;;;;;;;49.75;45.70;;;31.20;47.80;;;;;;4949609;28;20631;-72
2023/05/27 12:48:17;;;;;;;44.97;42.05;;;30.40;48.60;;;;;;4953793;28;20189;-73
2023/05/27 12:50:44;;;;;;;45.50;42.58;;;30.70;48.80;;;;;;4971457;28;20582;-73
2023/05/27 12:53:10;;;;;;;38.90;36.67;;;30.60;47.00;;;;;;4953969;28;20192;-72
2023/05/27 12:55:36;;;;;;;48.53;45.63;;;29.90;46.70;;;;;;4965045;28;20189;-72
2023/05/27 12:58:03;;;;;;;50.50;47.25;;;29.10;47.50;;;;;;4969387;28;20189;-73
2023/05/27 13:00:29;;;;;;;58.50;54.35;;;29.30;46.40;;;;;;4954849;28;20217;-72
2023/05/27 13:02:54;;;;;;;52.30;49.30;;;29.20;46.70;;;;;;4971945;28;20192;-68
2023/05/27 13:05:20;;;;;;;42.13;39.33;;;29.70;46.50;;;;;;4971328;28;20197;-69
2023/05/27 13:08:13;;;;;;;37.65;35.35;;;29.90;45.50;;;;;;4971069;28;20188;-68
2023/05/27 13:10:40;;;;;;;32.95;31.10;;;29.00;44.60;;;;;;4965781;28;20771;-67
2023/05/27 13:13:06;;;;;;;31.75;29.73;;;29.20;44.60;;;;;;4954457;28;20224;-69
2023/05/27 13:15:33;;;;;;;39.03;36.63;;;30.00;43.00;;;;;;4969106;28;20247;-68
2023/05/27 13:17:59;;;;;;;36.50;34.33;;;30.00;44.00;;;;;;4943770;28;20182;-68
2023/05/27 13:20:29;;;;;;;43.22;40.67;;;29.90;44.60;;;;;;4974559;28;20227;-68
2023/05/27 13:22:59;;;;;;;35.63;33.55;;;30.10;44.20;;;;;;4972581;28;20193;-68
2023/05/27 13:25:26;;;;;;;40.53;38.17;;;29.80;43.90;;;;;;4974597;28;20188;-69
2023/05/27 13:27:53;;;;;;;33.90;31.48;;;30.20;42.80;;;;;;4974187;28;20222;-69
2023/05/27 13:30:19;;;;;;;41.00;37.90;;;30.10;42.10;;;;;;4974760;28;20224;-76
2023/05/27 13:32:45;;;;;;;25.25;22.98;;;31.00;41.00;;;;;;4958220;28;20243;-77
2023/05/27 13:35:11;;;;;;;22.33;21.02;;;30.90;40.00;;;;;;4966865;28;20275;-77
2023/05/27 13:37:38;;;;;;;27.75;26.05;;;30.90;39.30;;;;;;4954318;28;20208;-76
2023/05/27 13:40:06;;;;;;;31.98;29.98;;;30.60;40.90;;;;;;4957675;28;20221;-75
2023/05/27 13:42:32;;;;;;;31.02;29.17;;;30.40;41.70;;;;;;4974674;28;20216;-76
2023/05/27 13:44:58;;;;;;;28.17;26.10;;;30.50;40.90;;;;;;4974953;28;20216;-75
2023/05/27 13:47:28;;;;;;;23.80;22.20;;;30.50;39.90;;;;;;4974992;28;20191;-75
2023/05/27 13:49:53;;;;;;;21.85;20.45;;;30.90;38.80;;;;;;4957647;28;20197;-78
2023/05/27 13:52:19;;;;;;;17.80;16.73;;;30.90;36.20;;;;;;4953500;28;20269;-76
2023/05/27 13:54:45;;;;;;;19.30;18.10;;;30.40;35.60;;;;;;4970967;28;20564;-76
2023/05/27 13:57:13;;;;;;;20.80;19.60;;;29.90;37.80;;;;;;4957418;28;20192;-76
2023/05/27 13:59:42;;;;;;;21.38;20.10;;;30.20;37.80;;;;;;4974930;28;20225;-76
2023/05/27 14:02:09;;;;;;;26.48;24.95;;;30.20;38.90;;;;;;4974433;28;20860;-76
2023/05/27 14:04:35;;;;;;;31.92;29.98;;;30.40;40.20;;;;;;4971552;28;20189;-77
2023/05/27 14:07:00;;;;;;;31.38;29.25;;;30.00;41.30;;;;;;4972074;28;20184;-76
2023/05/27 14:09:26;;;;;;;30.58;28.95;;;30.10;40.00;;;;;;4957047;28;20677;-76
2023/05/27 14:11:52;;;;;;;20.02;18.73;;;30.70;39.70;;;;;;4974439;28;20209;-75
2023/05/27 14:14:18;;;;;;;23.25;21.83;;;30.70;38.10;;;;;;4957907;28;20656;-76
2023/05/27 14:16:43;;;;;;;23.00;21.58;;;31.20;38.90;;;;;;4975248;28;20196;-76
2023/05/27 14:19:09;;;;;;;25.88;24.20;;;31.10;39.80;;;;;;4959796;28;20685;-76
2023/05/27 14:21:35;;;;;;;23.67;21.77;;;31.30;39.80;;;;;;4968101;28;20208;-75
2023/05/27 14:24:01;;;;;;;23.52;21.92;;;30.70;40.10;;;;;;4955572;28;20189;-76
2023/05/27 14:26:26;;;;;;;30.20;28.35;;;31.40;40.10;;;;;;4956723;28;20196;-77
2023/05/27 14:28:52;;;;;;;20.58;19.25;;;31.70;38.40;;;;;;4957421;28;20197;-76
2023/05/27 14:31:18;;;;;;;20.25;19.08;;;31.40;38.70;;;;;;4958815;28;20213;-75
2023/05/27 14:33:44;;;;;;;19.92;18.63;;;32.20;38.30;;;;;;4969099;28;20216;-77
2023/05/27 14:36:10;;;;;;;23.55;22.00;;;31.70;38.20;;;;;;4957366;28;20251;-76
2023/05/27 14:38:36;;;;;;;25.20;23.67;;;31.90;39.30;;;;;;4974117;28;20237;-78
2023/05/27 14:41:02;;;;;;;21.45;19.98;;;32.10;38.70;;;;;;4956420;28;20882;-75
2023/05/27 14:43:28;;;;;;;20.13;18.83;;;31.20;37.80;;;;;;4973918;28;20199;-75
2023/05/27 14:45:53;;;;;;;26.15;24.63;;;30.80;38.80;;;;;;4956182;28;20276;-74
2023/05/27 14:48:19;;;;;;;24.85;23.35;;;30.70;40.40;;;;;;4965912;28;20280;-75
2023/05/27 14:50:45;;;;;;;27.98;26.05;;;30.60;39.60;;;;;;4973587;28;20205;-75
2023/05/27 14:53:11;;;;;;;27.55;25.52;;;30.70;39.40;;;;;;4973837;28;20188;-75
2023/05/27 14:55:36;;;;;;;31.45;29.42;;;30.50;40.30;;;;;;4956207;28;20197;-75
2023/05/27 14:58:06;;;;;;;30.65;29.00;;;31.20;40.50;;;;;;4972920;28;20704;-75
2023/05/27 15:00:32;;;;;;;27.88;25.83;;;31.50;40.30;;;;;;4955048;28;20244;-76
2023/05/27 15:02:58;;;;;;;25.77;24.27;;;31.10;40.90;;;;;;4965218;28;20217;-77
2023/05/27 15:05:24;;;;;;;35.03;33.00;;;31.10;39.60;;;;;;4955768;28;20606;-75
2023/05/27 15:07:49;;;;;;;27.50;25.85;;;31.50;40.50;;;;;;4969513;28;20645;-75
2023/05/27 15:10:15;;;;;;;24.48;22.55;;;31.60;39.60;;;;;;4973086;28;20250;-75
2023/05/27 15:12:42;;;;;;;26.23;24.52;;;31.10;39.10;;;;;;4967544;28;20190;-76
2023/05/27 15:15:13;;;;;;;26.27;24.67;;;31.10;40.50;;;;;;4970697;28;20199;-76
2023/05/27 15:17:40;;;;;;;25.38;23.33;;;30.80;39.80;;;;;;4972591;28;20239;-75
2023/05/27 15:20:07;;;;;;;24.63;23.25;;;30.30;40.30;;;;;;4995745;23;20225;-75
2023/05/27 15:22:33;;;;;;;26.95;25.38;;;29.50;40.80;;;;;;4975109;28;20284;-75
2023/05/27 15:25:01;;;;;;;30.63;28.70;;;29.50;40.80;;;;;;4992337;28;20192;-75
2023/05/27 15:27:26;;;;;;;32.03;29.75;;;29.90;41.20;;;;;;4992166;28;20190;-75
2023/05/27 15:29:52;;;;;;;39.63;37.05;;;30.80;41.00;;;;;;4968624;28;20669;-74